createdAt,value
2022-08-21T00:01:33.597Z,58.55
2022-08-21T00:04:04.463Z,53.95
2022-08-21T00:06:30.824Z,57.88
2022-08-21T00:08:57.200Z,55.50
2022-08-21T00:11:23.671Z,52.67
2022-08-21T00:13:50.245Z,49.03
2022-08-21T00:16:16.613Z,51.80
2022-08-21T00:18:43.284Z,49.30
2022-08-21T00:21:09.957Z,52.72
2022-08-21T00:23:36.656Z,50.13
2022-08-21T00:26:03.315Z,51.03
2022-08-21T00:28:29.783Z,53.90
2022-08-21T00:30:57.643Z,47.55
2022-08-21T00:33:24.829Z,48.58
2022-08-21T00:35:51.232Z,45.90
2022-08-21T00:38:17.681Z,47.47
2022-08-21T00:40:44.070Z,43.17
2022-08-21T00:43:12.640Z,43.95
2022-08-21T00:45:39.114Z,50.22
2022-08-21T00:48:05.788Z,39.53
2022-08-21T00:50:34.166Z,40.25
2022-08-21T00:53:01.577Z,40.53
2022-08-21T00:55:29.427Z,40.47
2022-08-21T00:58:00.184Z,41.78
2022-08-21T01:00:31.034Z,43.97
2022-08-21T01:02:58.335Z,46.55
2022-08-21T01:05:25.446Z,43.00
2022-08-21T01:07:51.946Z,45.60
2022-08-21T01:10:24.471Z,43.72
2022-08-21T01:12:52.235Z,44.88
2022-08-21T01:15:19.246Z,45.92
2022-08-21T01:17:45.649Z,48.45
2022-08-21T01:20:12.822Z,49.88
2022-08-21T01:22:39.284Z,49.78
2022-08-21T01:25:06.626Z,49.78
2022-08-21T01:27:34.311Z,53.83
2022-08-21T01:30:06.385Z,59.33
2022-08-21T01:32:35.327Z,58.97
2022-08-21T01:35:01.729Z,59.85
2022-08-21T01:37:28.102Z,63.80
2022-08-21T01:39:54.626Z,64.53
2022-08-21T01:42:21.033Z,68.38
2022-08-21T01:44:47.610Z,72.85
2022-08-21T01:47:16.086Z,76.15
2022-08-21T01:49:51.081Z,84.88
2022-08-21T01:52:17.657Z,84.55
2022-08-21T01:54:44.100Z,84.93
2022-08-21T01:57:10.851Z,93.20
2022-08-21T01:59:37.848Z,100.43
2022-08-21T02:02:04.640Z,102.85
2022-08-21T02:04:31.838Z,110.47
2022-08-21T02:06:58.224Z,117.65
2022-08-21T02:09:24.731Z,131.93
2022-08-21T02:11:51.345Z,119.00
2022-08-21T02:14:32.509Z,131.25
2022-08-21T02:17:05.332Z,137.80
2022-08-21T02:19:40.530Z,137.88
2022-08-21T02:22:08.338Z,142.30
2022-08-21T02:24:34.740Z,137.73
2022-08-21T02:27:01.294Z,142.73
2022-08-21T02:29:27.780Z,140.85
2022-08-21T02:31:54.188Z,135.00
2022-08-21T02:34:20.576Z,135.00
2022-08-21T02:36:47.481Z,131.93
2022-08-21T02:39:26.913Z,138.95
2022-08-21T02:41:53.845Z,140.57
2022-08-21T02:44:20.253Z,127.82
2022-08-21T02:46:46.684Z,138.02
2022-08-21T02:49:13.059Z,132.23
2022-08-21T02:51:39.425Z,134.50
2022-08-21T02:54:05.818Z,124.78
2022-08-21T02:56:32.571Z,124.88
2022-08-21T02:58:59.025Z,119.72
2022-08-21T03:01:25.863Z,121.80
2022-08-21T03:03:52.503Z,116.55
2022-08-21T03:06:20.028Z,116.25
2022-08-21T03:08:46.488Z,116.20
2022-08-21T03:11:13.576Z,119.63
2022-08-21T03:13:40.202Z,113.25
2022-08-21T03:16:09.819Z,116.82
2022-08-21T03:18:36.751Z,112.95
2022-08-21T03:21:04.575Z,110.40
2022-08-21T03:23:33.114Z,95.10
2022-08-21T03:26:00.717Z,92.55
2022-08-21T03:28:27.121Z,93.00
2022-08-21T03:30:53.717Z,88.65
2022-08-21T03:33:23.407Z,85.20
2022-08-21T03:35:56.722Z,78.22
2022-08-21T03:38:26.469Z,72.78
2022-08-21T03:40:53.279Z,71.72
2022-08-21T03:43:19.809Z,65.20
2022-08-21T03:45:46.253Z,71.50
2022-08-21T03:48:13.368Z,66.28
2022-08-21T03:50:41.588Z,66.68
2022-08-21T03:53:17.075Z,66.40
2022-08-21T03:55:45.241Z,71.82
2022-08-21T03:58:16.634Z,68.63
2022-08-21T04:00:44.457Z,69.47
2022-08-21T04:03:10.889Z,67.72
2022-08-21T04:05:38.138Z,70.20
2022-08-21T04:08:05.613Z,76.22
2022-08-21T04:10:33.155Z,73.47
2022-08-21T04:12:59.796Z,80.78
2022-08-21T04:15:26.801Z,78.05
2022-08-21T04:17:53.364Z,76.72
2022-08-21T04:20:20.300Z,87.65
2022-08-21T04:22:46.923Z,86.32
2022-08-21T04:25:14.173Z,86.63
2022-08-21T04:27:41.302Z,87.43
2022-08-21T04:30:08.316Z,87.18
2022-08-21T04:32:38.731Z,91.70
2022-08-21T04:35:07.378Z,83.90
2022-08-21T04:37:33.772Z,86.93
2022-08-21T04:40:08.595Z,82.15
2022-08-21T04:42:41.470Z,86.45
2022-08-21T04:45:08.033Z,77.32
2022-08-21T04:47:41.767Z,82.60
2022-08-21T04:50:19.863Z,81.55
2022-08-21T04:52:47.315Z,76.43
2022-08-21T04:55:13.683Z,78.78
2022-08-21T04:57:48.909Z,81.57
2022-08-21T05:05:08.584Z,79.80
2022-08-21T05:07:42.821Z,79.45
2022-08-21T05:10:10.023Z,76.63
2022-08-21T05:12:39.300Z,74.72
2022-08-21T05:15:05.828Z,72.03
2022-08-21T05:17:32.298Z,74.55
2022-08-21T05:19:58.678Z,69.75
2022-08-21T05:22:25.338Z,65.78
2022-08-21T05:24:52.285Z,62.15
2022-08-21T05:27:18.679Z,61.08
2022-08-21T05:29:46.507Z,62.45
2022-08-21T05:32:13.402Z,63.30
2022-08-21T05:34:39.808Z,64.20
2022-08-21T05:37:07.785Z,62.58
2022-08-21T05:40:20.132Z,56.40
2022-08-21T05:42:20.715Z,59.97
2022-08-21T05:44:47.169Z,62.55
2022-08-21T05:47:15.813Z,61.15
2022-08-21T05:49:42.157Z,55.53
2022-08-21T05:52:08.515Z,57.65
2022-08-21T05:54:36.995Z,54.67
2022-08-21T05:57:03.427Z,57.60
2022-08-21T05:59:30.177Z,50.10
2022-08-21T06:01:56.665Z,53.92
2022-08-21T06:04:23.061Z,50.97
2022-08-21T06:06:49.502Z,49.60
2022-08-21T06:09:15.888Z,50.28
2022-08-21T06:11:42.263Z,46.17
2022-08-21T06:14:08.770Z,43.42
2022-08-21T06:16:35.243Z,42.42
2022-08-21T06:19:03.051Z,43.10
2022-08-21T06:21:29.894Z,42.25
2022-08-21T06:23:56.692Z,43.97
2022-08-21T06:26:24.635Z,44.05
2022-08-21T06:28:51.202Z,45.58
2022-08-21T06:31:19.411Z,44.25
2022-08-21T06:33:46.267Z,41.30
2022-08-21T06:36:12.883Z,42.63
2022-08-21T06:38:39.912Z,38.20
2022-08-21T06:41:06.337Z,41.20
2022-08-21T06:43:39.695Z,36.72
2022-08-21T06:46:06.751Z,39.17
2022-08-21T06:48:34.342Z,39.47
2022-08-21T06:51:01.625Z,43.20
2022-08-21T06:53:28.198Z,38.03
2022-08-21T06:55:54.634Z,36.88
2022-08-21T06:58:21.055Z,36.67
2022-08-21T07:00:48.467Z,35.10
2022-08-21T07:03:23.311Z,36.90
2022-08-21T07:05:49.843Z,38.37
2022-08-21T07:08:17.446Z,37.10
2022-08-21T07:10:43.953Z,40.17
2022-08-21T07:13:10.384Z,34.80
2022-08-21T07:15:36.810Z,38.15
2022-08-21T07:18:03.824Z,36.95
2022-08-21T07:20:31.333Z,36.58
2022-08-21T07:23:00.030Z,40.00
2022-08-21T07:25:26.758Z,36.40
2022-08-21T07:27:53.379Z,33.33
2022-08-21T07:30:20.410Z,31.05
2022-08-21T07:32:46.864Z,30.92
2022-08-21T07:35:13.583Z,30.25
2022-08-21T07:37:39.977Z,31.20
2022-08-21T07:40:06.853Z,30.20
2022-08-21T07:42:33.415Z,27.40
2022-08-21T07:44:59.877Z,32.47
2022-08-21T07:47:29.458Z,26.45
2022-08-21T07:50:12.211Z,27.02
2022-08-21T07:52:45.127Z,28.65
2022-08-21T07:55:13.705Z,28.50
2022-08-21T07:57:40.235Z,26.60
2022-08-21T08:00:07.774Z,23.00
2022-08-21T08:02:34.223Z,24.63
2022-08-21T08:05:01.960Z,22.00
2022-08-21T08:07:28.505Z,24.30
2022-08-21T08:09:54.949Z,22.10
2022-08-21T08:12:21.650Z,22.55
2022-08-21T08:14:48.606Z,22.13
2022-08-21T08:17:15.049Z,22.02
2022-08-21T08:19:41.454Z,20.95
2022-08-21T08:22:20.204Z,24.05
2022-08-21T08:24:47.034Z,24.50
2022-08-21T08:27:13.560Z,17.83
2022-08-21T08:29:40.043Z,17.45
2022-08-21T08:32:08.241Z,20.92
2022-08-21T08:34:35.520Z,23.23
2022-08-21T08:37:02.157Z,16.80
2022-08-21T08:39:29.602Z,18.15
2022-08-21T08:42:33.365Z,16.98
2022-08-21T08:45:04.212Z,14.73
2022-08-21T08:47:32.119Z,22.23
2022-08-21T08:50:04.486Z,13.45
2022-08-21T08:52:31.683Z,16.15
2022-08-21T08:55:00.855Z,15.68
2022-08-21T08:57:27.724Z,15.75
2022-08-21T09:00:00.511Z,12.75
2022-08-21T09:02:29.925Z,15.57
2022-08-21T09:04:57.622Z,12.88
2022-08-21T09:07:26.821Z,11.25
2022-08-21T09:10:03.633Z,12.02
2022-08-21T09:12:34.395Z,12.13
2022-08-21T09:15:01.050Z,10.75
2022-08-21T09:17:37.846Z,14.43
2022-08-21T09:20:07.619Z,9.85
2022-08-21T09:22:42.891Z,10.80
2022-08-21T09:25:16.419Z,10.45
2022-08-21T09:27:42.779Z,12.90
2022-08-21T09:30:10.389Z,9.60
2022-08-21T09:32:38.290Z,9.20
2022-08-21T09:35:07.101Z,8.65
2022-08-21T09:37:35.569Z,15.25
2022-08-21T09:40:03.836Z,12.00
2022-08-21T09:42:34.239Z,8.98
2022-08-21T09:45:17.612Z,7.03
2022-08-21T09:47:45.037Z,11.13
2022-08-21T09:50:14.852Z,13.13
2022-08-21T09:52:45.856Z,7.82
2022-08-21T09:55:42.507Z,8.57
2022-08-21T09:58:10.728Z,8.77
2022-08-21T10:00:37.382Z,9.70
2022-08-21T10:03:10.006Z,5.40
2022-08-21T10:05:37.807Z,9.40
2022-08-21T10:08:05.253Z,8.85
2022-08-21T10:10:32.800Z,10.35
2022-08-21T10:13:15.007Z,7.68
2022-08-21T10:15:44.296Z,9.05
2022-08-21T10:18:13.444Z,8.32
2022-08-21T10:20:50.679Z,11.40
2022-08-21T10:23:17.049Z,6.75
2022-08-21T10:25:50.494Z,10.98
2022-08-21T10:28:54.471Z,7.50
2022-08-21T10:31:43.873Z,8.00
2022-08-21T10:34:19.392Z,4.82
2022-08-21T10:39:26.759Z,6.50
2022-08-21T10:42:10.483Z,9.25
2022-08-21T10:44:46.241Z,5.75
2022-08-21T10:47:18.064Z,18.77
2022-08-21T10:49:52.815Z,12.60
2022-08-21T10:52:22.298Z,8.13
2022-08-21T10:54:55.784Z,6.20
2022-08-21T10:57:34.102Z,7.95
2022-08-21T11:00:14.075Z,6.15
2022-08-21T11:02:44.018Z,9.20
2022-08-21T11:05:17.939Z,6.60
2022-08-21T11:08:03.254Z,8.23
2022-08-21T11:10:34.881Z,5.93
2022-08-21T11:13:03.943Z,7.80
2022-08-21T11:15:39.845Z,8.95
2022-08-21T11:18:16.201Z,5.05
2022-08-21T11:20:51.717Z,6.90
2022-08-21T11:23:22.362Z,8.07
2022-08-21T11:25:52.350Z,6.65
2022-08-21T11:28:21.730Z,6.55
2022-08-21T11:31:06.798Z,6.25
2022-08-21T11:33:42.610Z,5.18
2022-08-21T11:36:16.812Z,6.50
2022-08-21T11:38:45.739Z,5.88
2022-08-21T11:41:21.377Z,9.23
2022-08-21T11:43:52.461Z,6.57
2022-08-21T11:46:28.118Z,6.03
2022-08-21T11:49:03.713Z,10.18
2022-08-21T11:54:15.162Z,7.05
2022-08-21T11:56:44.971Z,7.45
2022-08-21T11:59:17.660Z,7.75
2022-08-21T12:01:46.153Z,5.63
2022-08-21T12:04:27.545Z,6.70
2022-08-21T12:06:55.693Z,5.65
2022-08-21T12:09:25.146Z,7.32
2022-08-21T12:12:33.239Z,6.40
2022-08-21T12:15:14.276Z,8.80
2022-08-21T12:17:41.663Z,7.82
2022-08-21T12:20:26.560Z,9.65
2022-08-21T12:23:15.606Z,7.13
2022-08-21T12:26:08.203Z,7.32
2022-08-21T12:28:35.352Z,4.90
2022-08-21T12:31:01.737Z,8.40
2022-08-21T12:33:28.121Z,5.60
2022-08-21T12:36:03.127Z,7.78
2022-08-21T12:38:32.879Z,7.68
2022-08-21T12:41:04.123Z,4.93
2022-08-21T12:43:33.852Z,6.50
2022-08-21T12:46:01.684Z,7.35
2022-08-21T12:48:32.162Z,9.88
2022-08-21T12:51:06.195Z,9.02
2022-08-21T12:53:53.765Z,6.97
2022-08-21T12:56:24.998Z,4.93
2022-08-21T12:58:52.863Z,6.45
2022-08-21T13:01:28.723Z,5.10
2022-08-21T13:04:04.520Z,6.32
2022-08-21T13:06:38.008Z,4.65
2022-08-21T13:09:09.279Z,7.75
2022-08-21T13:11:36.120Z,5.20
2022-08-21T13:14:05.771Z,9.73
2022-08-21T13:16:32.950Z,5.43
2022-08-21T13:19:06.830Z,5.65
2022-08-21T13:21:40.223Z,3.80
2022-08-21T13:24:32.064Z,5.00
2022-08-21T13:26:59.168Z,6.82
2022-08-21T13:29:30.111Z,5.22
2022-08-21T13:32:02.328Z,8.10
2022-08-21T13:34:34.183Z,6.25
2022-08-21T13:37:01.899Z,6.53
2022-08-21T13:39:28.329Z,6.15
2022-08-21T13:41:58.985Z,4.63
2022-08-21T13:44:35.925Z,7.15
2022-08-21T13:47:04.392Z,7.35
2022-08-21T13:49:32.311Z,8.43
2022-08-21T13:51:58.833Z,5.05
2022-08-21T13:54:34.579Z,6.90
2022-08-21T13:57:03.254Z,11.57
2022-08-21T13:59:31.499Z,7.97
2022-08-21T14:02:01.074Z,7.57
2022-08-21T14:04:32.012Z,4.25
2022-08-21T14:06:58.587Z,6.28
2022-08-21T14:09:30.912Z,7.63
2022-08-21T14:11:58.192Z,6.53
2022-08-21T14:14:26.322Z,7.57
2022-08-21T14:16:57.392Z,6.32
2022-08-21T14:19:26.074Z,8.68
2022-08-21T14:21:52.628Z,6.50
2022-08-21T14:24:25.118Z,6.32
2022-08-21T14:26:53.360Z,6.50
2022-08-21T14:29:23.112Z,5.65
2022-08-21T14:31:54.005Z,6.13
2022-08-21T14:34:20.789Z,6.35
2022-08-21T14:36:47.841Z,4.63
2022-08-21T14:39:14.221Z,8.95
2022-08-21T14:41:40.900Z,4.25
2022-08-21T14:44:09.851Z,4.03
2022-08-21T14:46:51.682Z,4.38
2022-08-21T14:49:27.672Z,6.40
2022-08-21T14:51:58.116Z,6.50
2022-08-21T14:54:29.587Z,6.38
2022-08-21T14:56:58.683Z,8.18
2022-08-21T14:59:26.795Z,5.90
2022-08-21T15:01:53.358Z,9.23
2022-08-21T15:04:19.804Z,6.60
2022-08-21T15:06:46.228Z,7.50
2022-08-21T15:09:12.645Z,5.43
2022-08-21T15:11:42.955Z,7.60
2022-08-21T15:14:11.683Z,4.90
2022-08-21T15:16:38.107Z,4.55
2022-08-21T15:19:04.726Z,5.30
2022-08-21T15:21:31.074Z,7.13
2022-08-21T15:23:57.550Z,6.85
2022-08-21T15:26:24.588Z,5.60
2022-08-21T15:28:51.155Z,6.75
2022-08-21T15:31:17.987Z,6.65
2022-08-21T15:33:44.395Z,9.10
2022-08-21T15:36:10.899Z,6.53
2022-08-21T15:38:37.249Z,8.38
2022-08-21T15:41:04.662Z,6.90
2022-08-21T15:43:34.000Z,5.10
2022-08-21T15:46:00.717Z,8.55
2022-08-21T15:48:27.145Z,6.95
2022-08-21T15:50:53.748Z,8.73
2022-08-21T15:53:20.210Z,8.35
2022-08-21T15:55:46.723Z,6.75
2022-08-21T15:58:14.595Z,5.72
2022-08-21T16:00:41.108Z,7.95
2022-08-21T16:03:11.404Z,6.03
2022-08-21T16:05:37.783Z,8.32
2022-08-21T16:08:04.814Z,6.07
2022-08-21T16:10:35.803Z,5.50
2022-08-21T16:13:03.681Z,7.78
2022-08-21T16:15:30.312Z,9.05
2022-08-21T16:17:56.992Z,6.97
2022-08-21T16:20:25.814Z,8.05
2022-08-21T16:22:53.627Z,6.30
2022-08-21T16:25:20.207Z,6.03
2022-08-21T16:27:50.262Z,6.68
2022-08-21T16:30:19.106Z,6.82
2022-08-21T16:32:46.045Z,8.45
2022-08-21T16:35:16.442Z,6.00
2022-08-21T16:37:43.028Z,6.18
2022-08-21T16:40:10.536Z,6.80
2022-08-21T16:42:38.539Z,5.07
2022-08-21T16:45:09.149Z,7.78
2022-08-21T16:47:35.571Z,6.03
2022-08-21T16:50:02.236Z,9.13
2022-08-21T16:52:28.655Z,4.57
2022-08-21T16:54:55.129Z,8.50
2022-08-21T16:57:21.661Z,6.85
2022-08-21T16:59:48.229Z,6.47
2022-08-21T17:02:34.820Z,8.60
2022-08-21T17:05:02.696Z,4.28
2022-08-21T17:07:30.272Z,5.90
2022-08-21T17:09:57.758Z,6.22
2022-08-21T17:12:24.232Z,4.93
2022-08-21T17:14:50.644Z,7.07
2022-08-21T17:17:17.306Z,9.40
2022-08-21T17:19:44.103Z,5.97
2022-08-21T17:22:10.460Z,6.05
2022-08-21T17:24:37.173Z,9.75
2022-08-21T17:27:04.607Z,4.75
2022-08-21T17:29:33.134Z,7.80
2022-08-21T17:31:59.572Z,6.25
2022-08-21T17:34:28.872Z,6.18
2022-08-21T17:36:58.252Z,6.85
2022-08-21T17:39:26.489Z,6.70
2022-08-21T17:41:57.628Z,6.30
2022-08-21T17:44:24.742Z,8.25
2022-08-21T17:46:51.163Z,11.35
2022-08-21T17:49:17.626Z,6.50
2022-08-21T17:51:44.103Z,5.18
2022-08-21T17:54:10.721Z,6.03
2022-08-21T17:56:37.799Z,5.32
2022-08-21T17:59:05.323Z,4.65
2022-08-21T18:01:34.045Z,8.18
2022-08-21T18:04:00.586Z,8.25
2022-08-21T18:06:26.981Z,10.95
2022-08-21T18:08:53.425Z,8.73
2022-08-21T18:11:24.042Z,8.52
2022-08-21T18:13:51.886Z,6.70
2022-08-21T18:16:19.514Z,5.13
2022-08-21T18:18:46.577Z,7.50
2022-08-21T18:21:12.923Z,11.50
2022-08-21T18:23:44.297Z,8.77
2022-08-21T18:26:12.843Z,7.57
2022-08-21T18:28:39.303Z,9.15
2022-08-21T18:31:07.441Z,8.40
2022-08-21T18:33:33.939Z,10.02
2022-08-21T18:36:00.363Z,11.02
2022-08-21T18:38:31.257Z,9.65
2022-08-21T18:40:59.595Z,9.57
2022-08-21T18:43:26.771Z,10.73
2022-08-21T18:45:53.347Z,6.85
2022-08-21T18:48:20.301Z,11.35
2022-08-21T18:50:47.996Z,10.90
2022-08-21T18:53:24.164Z,6.68
2022-08-21T18:58:47.915Z,9.30
2022-08-21T19:01:14.466Z,5.22
2022-08-21T19:03:40.924Z,10.35
2022-08-21T19:06:09.789Z,15.15
2022-08-21T19:08:38.497Z,8.18
2022-08-21T19:11:06.546Z,8.00
2022-08-21T19:13:33.679Z,6.00
2022-08-21T19:16:03.813Z,12.20
2022-08-21T19:18:31.731Z,6.93
2022-08-21T19:20:58.371Z,9.20
2022-08-21T19:23:29.059Z,6.93
2022-08-21T19:26:00.576Z,7.65
2022-08-21T19:28:29.845Z,10.05
2022-08-21T19:31:07.418Z,8.20
2022-08-21T19:33:39.470Z,12.15
2022-08-21T19:36:06.961Z,7.13
2022-08-21T19:38:33.320Z,9.75
2022-08-21T19:41:00.285Z,8.00
2022-08-21T19:43:29.210Z,9.13
2022-08-21T19:45:56.758Z,10.35
2022-08-21T19:48:24.410Z,12.13
2022-08-21T19:50:51.210Z,15.77
2022-08-21T19:53:18.228Z,12.02
2022-08-21T19:55:45.912Z,9.40
2022-08-21T19:58:22.658Z,8.57
2022-08-21T20:00:49.302Z,9.52
2022-08-21T20:03:17.610Z,11.35
2022-08-21T20:05:47.615Z,8.40
2022-08-21T20:08:20.185Z,11.82
2022-08-21T20:10:47.135Z,12.13
2022-08-21T20:13:17.538Z,13.80
2022-08-21T20:15:45.164Z,8.10
2022-08-21T20:18:11.524Z,15.88
2022-08-21T20:20:38.515Z,9.45
2022-08-21T20:23:10.862Z,8.68
2022-08-21T20:25:38.350Z,8.40
2022-08-21T20:28:05.309Z,6.60
2022-08-21T20:30:31.734Z,10.50
2022-08-21T20:32:58.274Z,11.02
2022-08-21T20:35:24.793Z,8.95
2022-08-21T20:40:37.595Z,7.82
2022-08-21T20:43:04.491Z,10.20
2022-08-21T20:45:33.178Z,10.02
2022-08-21T20:48:26.476Z,6.60
2022-08-21T20:51:00.637Z,7.70
2022-08-21T20:53:43.209Z,15.00
2022-08-21T20:56:26.982Z,8.30
2022-08-21T21:16:05.892Z,7.55
2022-08-21T21:18:34.813Z,17.13
2022-08-21T21:21:06.817Z,9.02
2022-08-21T21:23:45.668Z,12.43
2022-08-21T21:26:16.058Z,9.48
2022-08-21T21:28:45.882Z,14.73
2022-08-21T21:31:13.190Z,12.50
2022-08-21T21:33:39.614Z,13.05
2022-08-21T21:36:16.279Z,12.60
2022-08-21T21:39:06.178Z,7.82
2022-08-21T21:41:32.493Z,9.68
2022-08-21T21:44:08.045Z,15.82
2022-08-21T21:46:54.344Z,13.25
2022-08-21T21:49:40.985Z,10.77
2022-08-21T21:52:39.987Z,9.13
2022-08-21T21:55:23.717Z,11.13
2022-08-21T21:57:50.189Z,10.38
2022-08-21T22:03:13.238Z,13.85
2022-08-21T22:05:39.849Z,10.60
2022-08-21T22:08:13.505Z,11.80
2022-08-21T22:10:42.948Z,13.38
2022-08-21T22:13:26.204Z,9.05
2022-08-21T22:15:53.231Z,10.77
2022-08-21T22:18:22.727Z,10.32
2022-08-21T22:21:02.608Z,10.05
2022-08-21T22:23:31.781Z,13.93
2022-08-21T22:26:06.010Z,14.13
2022-08-21T22:38:23.281Z,13.38
2022-08-21T22:40:49.767Z,12.88
2022-08-21T22:43:19.001Z,12.70
2022-08-21T22:45:57.162Z,21.63
2022-08-21T22:48:24.885Z,11.90
2022-08-21T22:50:55.996Z,12.50
2022-08-21T22:53:25.123Z,12.68
2022-08-21T22:55:55.973Z,12.20
2022-08-21T22:58:26.932Z,8.13
2022-08-21T23:00:53.327Z,14.77
2022-08-21T23:03:31.537Z,14.23
2022-08-21T23:06:00.448Z,12.68
2022-08-21T23:08:31.777Z,12.35
2022-08-21T23:11:00.121Z,15.48
2022-08-21T23:13:27.844Z,10.15
2022-08-21T23:16:15.674Z,16.27
2022-08-21T23:18:42.768Z,12.38
2022-08-21T23:21:15.840Z,13.95
2022-08-21T23:24:04.292Z,8.80
2022-08-21T23:26:40.384Z,15.55
2022-08-21T23:29:38.525Z,15.20
2022-08-21T23:32:04.936Z,12.65
2022-08-21T23:34:31.282Z,11.65
2022-08-21T23:37:16.472Z,13.25
2022-08-21T23:40:02.809Z,10.03
2022-08-21T23:42:48.279Z,12.35
2022-08-21T23:45:33.025Z,15.55
2022-08-21T23:48:24.120Z,13.20
2022-08-21T23:53:22.524Z,9.88
2022-08-21T23:55:55.485Z,12.38
2022-08-21T23:58:22.283Z,11.40
